createdAt,value
2019-03-15T00:01:44.646Z,91.10
2019-03-15T00:04:12.871Z,91.20
2019-03-15T00:06:41.088Z,91.70
2019-03-15T00:09:09.311Z,91.10
2019-03-15T00:11:37.531Z,90.90
2019-03-15T00:14:05.799Z,92.00
2019-03-15T00:16:34.017Z,91.30
2019-03-15T00:19:02.357Z,92.00
2019-03-15T00:21:30.567Z,91.90
2019-03-15T00:23:58.798Z,91.10
2019-03-15T00:26:27.013Z,90.60
2019-03-15T00:28:55.528Z,90.80
2019-03-15T00:31:24.008Z,90.30
2019-03-15T00:33:52.237Z,90.30
2019-03-15T00:36:20.459Z,90.20
2019-03-15T00:38:48.683Z,89.70
2019-03-15T00:41:16.901Z,90.30
2019-03-15T00:43:45.132Z,90.10
2019-03-15T00:46:13.582Z,89.60
2019-03-15T00:48:41.812Z,89.30
2019-03-15T00:51:10.367Z,88.70
2019-03-15T00:53:38.634Z,89.60
2019-03-15T00:56:06.856Z,89.20
2019-03-15T00:58:35.081Z,89.60
2019-03-15T01:01:14.145Z,87.80
2019-03-15T01:03:42.379Z,87.20
2019-03-15T01:06:10.595Z,86.70
2019-03-15T01:08:38.821Z,86.60
2019-03-15T01:11:07.289Z,87.70
2019-03-15T01:13:35.522Z,87.40
2019-03-15T01:16:03.781Z,88.50
2019-03-15T01:18:32.066Z,88.10
2019-03-15T01:21:00.284Z,87.10
2019-03-15T01:23:28.502Z,85.40
2019-03-15T01:25:56.732Z,86.40
2019-03-15T01:28:24.953Z,85.70
2019-03-15T01:30:53.553Z,86.40
2019-03-15T01:33:21.798Z,86.70
2019-03-15T01:35:50.029Z,85.90
2019-03-15T01:38:18.253Z,85.50
2019-03-15T01:40:48.879Z,85.70
2019-03-15T01:43:16.421Z,85.70
2019-03-15T01:45:44.656Z,85.30
2019-03-15T01:48:12.881Z,85.30
2019-03-15T01:50:41.110Z,84.60
2019-03-15T01:53:09.321Z,84.30
2019-03-15T01:55:37.553Z,83.60
2019-03-15T01:58:05.772Z,85.20
2019-03-15T02:00:33.996Z,84.80
2019-03-15T02:03:02.660Z,84.10
2019-03-15T02:05:31.046Z,83.90
2019-03-15T02:08:00.687Z,84.10
2019-03-15T02:10:29.133Z,84.50
2019-03-15T02:12:57.353Z,85.60
2019-03-15T02:15:25.858Z,86.70
2019-03-15T02:17:54.337Z,86.30
2019-03-15T02:20:22.569Z,85.60
2019-03-15T02:22:51.094Z,84.70
2019-03-15T02:25:19.319Z,84.00
2019-03-15T02:27:47.541Z,83.80
2019-03-15T02:30:15.766Z,84.60
2019-03-15T02:32:44.149Z,84.50
2019-03-15T02:35:12.385Z,84.10
2019-03-15T02:37:40.677Z,86.00
2019-03-15T02:40:08.934Z,85.70
2019-03-15T02:42:37.204Z,85.20
2019-03-15T02:45:06.324Z,85.80
2019-03-15T02:47:34.796Z,87.60
2019-03-15T02:50:03.501Z,87.40
2019-03-15T02:52:31.718Z,86.80
2019-03-15T02:54:59.945Z,86.60
2019-03-15T02:57:28.162Z,86.20
2019-03-15T02:59:56.388Z,89.30
2019-03-15T03:02:24.623Z,90.10
2019-03-15T03:04:52.927Z,90.20
2019-03-15T03:07:21.334Z,89.70
2019-03-15T03:09:49.621Z,88.90
2019-03-15T03:12:17.847Z,88.70
2019-03-15T03:14:46.340Z,87.80
2019-03-15T03:17:14.641Z,88.00
2019-03-15T03:19:42.865Z,88.30
2019-03-15T03:22:11.095Z,88.50
2019-03-15T03:24:39.308Z,88.10
2019-03-15T03:27:07.629Z,88.60
2019-03-15T03:29:35.934Z,89.00
2019-03-15T03:32:04.164Z,89.70
2019-03-15T03:34:32.382Z,88.50
2019-03-15T03:37:00.609Z,89.00
2019-03-15T03:39:28.829Z,89.30
2019-03-15T03:41:57.309Z,89.60
2019-03-15T03:44:25.516Z,88.90
2019-03-15T03:46:53.860Z,89.10
2019-03-15T03:49:22.068Z,90.40
2019-03-15T03:51:50.306Z,90.30
2019-03-15T03:54:18.520Z,90.70
2019-03-15T03:56:46.756Z,90.80
2019-03-15T03:59:15.308Z,90.60
2019-03-15T04:01:43.536Z,91.60
2019-03-15T04:04:11.751Z,91.50
2019-03-15T04:06:39.981Z,91.30
2019-03-15T04:09:08.480Z,91.80
2019-03-15T04:11:36.708Z,91.50
2019-03-15T04:14:04.926Z,91.30
2019-03-15T04:16:33.448Z,90.60
2019-03-15T04:19:01.669Z,90.50
2019-03-15T04:21:29.897Z,90.40
2019-03-15T04:23:58.112Z,90.40
2019-03-15T04:26:26.341Z,90.30
2019-03-15T04:28:56.951Z,90.20
2019-03-15T04:31:24.508Z,89.90
2019-03-15T04:33:52.724Z,90.00
2019-03-15T04:36:20.956Z,89.80
2019-03-15T04:38:49.164Z,90.00
2019-03-15T04:41:17.396Z,90.00
2019-03-15T04:43:45.609Z,90.30
2019-03-15T04:46:13.928Z,90.50
2019-03-15T04:48:42.481Z,89.70
2019-03-15T04:51:10.705Z,90.00
2019-03-15T04:53:38.916Z,90.30
2019-03-15T04:56:07.443Z,90.20
2019-03-15T04:58:35.743Z,90.50
2019-03-15T05:01:04.008Z,90.70
2019-03-15T05:03:32.224Z,90.60
2019-03-15T05:06:03.700Z,90.30
2019-03-15T05:08:30.391Z,90.80
2019-03-15T05:10:58.613Z,90.30
2019-03-15T05:13:26.839Z,89.30
2019-03-15T05:15:55.059Z,90.20
2019-03-15T05:18:23.284Z,89.50
2019-03-15T05:20:51.521Z,89.00
2019-03-15T05:23:19.825Z,87.90
2019-03-15T05:25:48.028Z,87.80
2019-03-15T05:28:16.259Z,87.50
2019-03-15T05:30:44.482Z,88.70
2019-03-15T05:33:12.704Z,88.70
2019-03-15T05:35:40.934Z,89.80
2019-03-15T05:38:09.289Z,89.60
2019-03-15T05:40:37.528Z,89.80
2019-03-15T05:43:05.756Z,90.10
2019-03-15T05:45:34.290Z,90.60
2019-03-15T05:48:02.496Z,91.20
2019-03-15T05:50:30.711Z,91.80
2019-03-15T05:52:58.961Z,92.70
2019-03-15T05:55:27.180Z,92.50
2019-03-15T05:57:55.764Z,92.40
2019-03-15T06:00:23.988Z,92.70
2019-03-15T06:02:52.652Z,92.40
2019-03-15T06:05:20.952Z,93.00
2019-03-15T06:07:49.200Z,93.10
2019-03-15T06:10:17.749Z,93.20
2019-03-15T06:12:45.980Z,93.80
2019-03-15T06:15:14.222Z,93.40
2019-03-15T06:17:42.818Z,93.30
2019-03-15T06:20:14.120Z,93.70
2019-03-15T06:22:42.444Z,93.50
2019-03-15T06:25:11.196Z,94.10
2019-03-15T06:27:39.427Z,94.00
2019-03-15T06:30:12.503Z,93.70
2019-03-15T06:32:40.772Z,94.20
2019-03-15T06:35:09.421Z,94.10
2019-03-15T06:37:37.900Z,94.40
2019-03-15T06:40:13.243Z,94.90
2019-03-15T06:42:40.184Z,95.10
2019-03-15T06:45:10.839Z,94.40
2019-03-15T06:47:39.413Z,96.00
2019-03-15T06:50:08.268Z,94.00
2019-03-15T06:52:36.776Z,93.10
2019-03-15T06:55:07.290Z,93.30
2019-03-15T06:57:35.516Z,93.00
2019-03-15T07:00:05.439Z,93.50
2019-03-15T07:02:33.664Z,93.40
2019-03-15T07:05:01.989Z,93.70
2019-03-15T07:07:30.346Z,93.70
2019-03-15T07:09:58.938Z,93.20
2019-03-15T07:12:27.159Z,93.60
2019-03-15T07:14:55.382Z,93.80
2019-03-15T07:17:23.612Z,93.60
2019-03-15T07:19:51.832Z,93.50
2019-03-15T07:22:20.279Z,93.10
2019-03-15T07:24:48.565Z,93.40
2019-03-15T07:27:16.905Z,93.70
2019-03-15T07:29:45.193Z,93.70
2019-03-15T07:32:13.416Z,93.90
2019-03-15T07:34:41.769Z,93.80
2019-03-15T07:37:10.532Z,94.10
2019-03-15T07:39:38.773Z,94.00
2019-03-15T07:42:07.323Z,94.40
2019-03-15T07:44:35.549Z,94.50
2019-03-15T07:47:03.771Z,94.00
2019-03-15T07:49:31.998Z,93.70
2019-03-15T07:52:00.212Z,93.70
2019-03-15T07:54:37.451Z,94.20
2019-03-15T07:56:58.432Z,94.50
2019-03-15T07:59:27.913Z,94.50
2019-03-15T08:01:56.364Z,94.40
2019-03-15T08:04:24.759Z,94.00
2019-03-15T08:06:52.972Z,94.20
2019-03-15T08:09:21.271Z,94.10
2019-03-15T08:11:49.560Z,93.50
2019-03-15T08:14:17.811Z,94.40
2019-03-15T08:16:46.037Z,94.90
2019-03-15T08:19:14.327Z,94.80
2019-03-15T08:21:42.543Z,95.00
2019-03-15T08:24:10.773Z,94.70
2019-03-15T08:26:38.988Z,94.30
2019-03-15T08:29:09.692Z,94.20
2019-03-15T08:31:37.161Z,94.30
2019-03-15T08:34:05.388Z,94.00
2019-03-15T08:36:33.605Z,93.70
2019-03-15T08:39:01.837Z,94.40
2019-03-15T08:41:30.057Z,94.30
2019-03-15T08:43:58.285Z,93.90
2019-03-15T08:46:26.676Z,93.90
2019-03-15T08:48:54.910Z,94.10
2019-03-15T08:51:23.564Z,94.00
2019-03-15T08:53:51.792Z,94.60
2019-03-15T08:56:20.010Z,94.40
2019-03-15T08:58:48.233Z,93.60
2019-03-15T09:01:16.450Z,94.50
2019-03-15T09:03:44.690Z,94.60
2019-03-15T09:06:13.324Z,93.70
2019-03-15T09:08:41.633Z,94.60
2019-03-15T09:11:09.856Z,96.30
2019-03-15T09:13:38.088Z,95.10
2019-03-15T09:16:06.301Z,94.60
2019-03-15T09:18:34.524Z,94.40
2019-03-15T09:21:02.742Z,94.80
2019-03-15T09:23:30.970Z,94.40
2019-03-15T09:25:59.190Z,94.90
2019-03-15T09:28:27.401Z,95.10
2019-03-15T09:30:55.628Z,95.00
2019-03-15T09:33:23.849Z,95.50
2019-03-15T09:35:52.072Z,95.40
2019-03-15T09:38:20.293Z,95.70
2019-03-15T09:40:48.521Z,96.00
2019-03-15T09:43:16.745Z,95.70
2019-03-15T09:45:44.973Z,96.20
2019-03-15T09:48:13.189Z,95.90
2019-03-15T09:50:51.066Z,95.90
2019-03-15T09:53:11.360Z,96.10
2019-03-15T09:55:39.588Z,96.70
2019-03-15T09:58:07.805Z,96.80
2019-03-15T10:00:36.282Z,97.30
2019-03-15T10:03:04.535Z,97.40
2019-03-15T10:05:32.797Z,97.60
2019-03-15T10:08:01.033Z,97.60
2019-03-15T10:10:29.250Z,97.60
2019-03-15T10:13:05.849Z,97.60
2019-03-15T10:15:27.417Z,98.10
2019-03-15T10:17:55.904Z,98.60
2019-03-15T10:20:24.133Z,98.50
2019-03-15T10:23:05.618Z,98.40
2019-03-15T10:25:22.305Z,98.40
2019-03-15T10:27:50.522Z,98.40
2019-03-15T10:30:19.497Z,98.30
2019-03-15T10:32:47.705Z,98.40
2019-03-15T10:35:15.937Z,98.70
2019-03-15T10:37:44.474Z,98.60
2019-03-15T10:40:18.180Z,98.80
2019-03-15T10:42:46.399Z,98.30
2019-03-15T10:45:14.632Z,98.70
2019-03-15T10:47:42.941Z,98.40
2019-03-15T10:50:13.295Z,98.10
2019-03-15T10:52:41.508Z,98.10
2019-03-15T10:55:09.916Z,98.40
2019-03-15T10:57:38.129Z,98.60
2019-03-15T11:00:10.039Z,98.80
2019-03-15T11:02:38.240Z,98.80
2019-03-15T11:05:08.411Z,99.50
2019-03-15T11:07:36.624Z,99.40
2019-03-15T11:10:06.893Z,99.60
2019-03-15T11:12:35.396Z,99.40
2019-03-15T11:15:03.990Z,99.00
2019-03-15T11:17:32.200Z,98.80
2019-03-15T11:20:00.549Z,98.50
2019-03-15T11:22:28.828Z,98.60
2019-03-15T11:24:57.067Z,98.80
2019-03-15T11:27:25.293Z,98.90
2019-03-15T11:29:53.858Z,98.90
2019-03-15T11:32:22.076Z,98.70
2019-03-15T11:35:02.740Z,98.60
2019-03-15T11:37:30.947Z,98.80
2019-03-15T11:39:59.176Z,98.50
2019-03-15T11:42:27.396Z,98.80
2019-03-15T11:44:55.624Z,98.40
2019-03-15T11:47:23.866Z,98.60
2019-03-15T11:49:52.088Z,98.20
2019-03-15T11:52:20.315Z,98.30
2019-03-15T11:54:49.958Z,98.00
2019-03-15T11:57:18.400Z,98.10
2019-03-15T11:59:46.633Z,98.50
2019-03-15T12:02:14.865Z,98.50
2019-03-15T12:04:43.108Z,98.50
2019-03-15T12:07:11.324Z,98.20
2019-03-15T12:09:41.035Z,98.10
2019-03-15T12:12:09.917Z,97.90
2019-03-15T12:14:41.249Z,98.00
2019-03-15T12:17:08.400Z,98.00
2019-03-15T12:19:36.618Z,98.30
2019-03-15T12:22:06.523Z,98.50
2019-03-15T12:24:34.816Z,98.20
2019-03-15T12:27:03.046Z,98.20
2019-03-15T12:29:31.269Z,97.80
2019-03-15T12:31:59.500Z,98.30
2019-03-15T12:34:27.724Z,98.00
2019-03-15T12:36:55.958Z,97.90
2019-03-15T12:39:24.421Z,98.00
2019-03-15T12:41:52.649Z,98.00
2019-03-15T12:44:20.869Z,97.70
2019-03-15T12:46:49.104Z,97.90
2019-03-15T12:49:17.649Z,97.80
2019-03-15T12:51:45.890Z,97.50
2019-03-15T12:54:14.105Z,97.60
2019-03-15T12:56:53.255Z,97.90
2019-03-15T12:59:12.289Z,97.80
2019-03-15T13:01:40.520Z,97.80
2019-03-15T13:04:09.032Z,97.50
2019-03-15T13:06:37.261Z,97.30
2019-03-15T13:09:06.257Z,97.20
2019-03-15T13:11:34.484Z,97.00
2019-03-15T13:14:02.707Z,97.00
2019-03-15T13:16:30.939Z,97.20
2019-03-15T13:18:59.165Z,97.20
2019-03-15T13:21:27.396Z,97.30
2019-03-15T13:23:55.617Z,96.80
2019-03-15T13:26:23.848Z,96.70
2019-03-15T13:28:52.080Z,96.90
2019-03-15T13:31:20.304Z,96.50
2019-03-15T13:33:48.596Z,96.70
2019-03-15T13:36:16.834Z,96.40
2019-03-15T13:38:45.052Z,96.60
2019-03-15T13:42:07.481Z,96.50
2019-03-15T13:44:35.744Z,96.50
2019-03-15T13:47:03.985Z,96.50
2019-03-15T13:49:32.200Z,96.50
2019-03-15T13:52:00.436Z,96.70
2019-03-15T13:54:28.658Z,96.70
2019-03-15T13:56:56.892Z,96.50
2019-03-15T13:59:25.108Z,96.60
2019-03-15T14:01:53.665Z,96.40
2019-03-15T14:04:21.908Z,96.20
2019-03-15T14:06:50.132Z,96.20
2019-03-15T14:09:18.341Z,96.40
2019-03-15T14:11:46.577Z,96.30
2019-03-15T14:14:14.794Z,96.40
2019-03-15T14:16:43.076Z,96.20
2019-03-15T14:19:11.301Z,95.80
2019-03-15T14:21:39.533Z,96.00
2019-03-15T14:24:07.748Z,96.00
2019-03-15T14:26:35.981Z,95.80
2019-03-15T14:29:04.197Z,96.00
2019-03-15T14:31:32.424Z,95.80
2019-03-15T14:34:00.652Z,95.90
2019-03-15T14:36:28.893Z,95.80
2019-03-15T14:38:57.724Z,95.90
2019-03-15T14:41:26.025Z,96.00
2019-03-15T14:43:54.454Z,96.20
2019-03-15T14:46:22.748Z,95.80
2019-03-15T14:48:50.969Z,95.50
2019-03-15T14:51:19.589Z,95.30
2019-03-15T14:53:47.904Z,95.30
2019-03-15T14:56:16.124Z,95.00
2019-03-15T14:58:44.356Z,95.40
2019-03-15T15:01:12.914Z,95.60
2019-03-15T15:03:41.153Z,95.30
2019-03-15T15:06:09.452Z,95.10
2019-03-15T15:08:37.689Z,94.90
2019-03-15T15:11:05.908Z,93.90
2019-03-15T15:13:34.136Z,93.90
2019-03-15T15:16:02.360Z,93.60
2019-03-15T15:18:30.596Z,93.50
2019-03-15T15:20:58.825Z,93.50
2019-03-15T15:23:27.052Z,93.60
2019-03-15T15:25:55.277Z,93.70
2019-03-15T15:28:23.504Z,93.70
2019-03-15T15:30:51.724Z,93.80
2019-03-15T15:33:19.953Z,93.70
2019-03-15T15:35:48.182Z,93.90
2019-03-15T15:38:16.408Z,94.10
2019-03-15T15:40:44.926Z,93.90
2019-03-15T15:43:13.161Z,93.50
2019-03-15T15:45:41.688Z,93.60
2019-03-15T15:48:10.169Z,93.30
2019-03-15T15:50:38.388Z,93.80
2019-03-15T15:53:06.625Z,93.50
2019-03-15T15:55:34.850Z,93.70
2019-03-15T15:58:03.090Z,93.90
2019-03-15T16:00:31.304Z,93.70
2019-03-15T16:02:59.826Z,93.80
2019-03-15T16:05:28.300Z,93.80
2019-03-15T16:07:56.906Z,93.90
2019-03-15T16:10:25.233Z,94.10
2019-03-15T16:12:53.477Z,93.90
2019-03-15T16:15:21.698Z,94.20
2019-03-15T16:17:50.006Z,94.40
2019-03-15T16:20:18.285Z,94.50
2019-03-15T16:22:46.540Z,94.50
2019-03-15T16:25:15.027Z,94.80
2019-03-15T16:27:43.256Z,93.70
2019-03-15T16:30:16.363Z,93.80
2019-03-15T16:32:44.595Z,94.10
2019-03-15T16:35:14.076Z,94.20
2019-03-15T16:37:42.309Z,94.30
2019-03-15T16:40:14.602Z,94.30
2019-03-15T16:42:43.117Z,94.30
2019-03-15T16:45:16.724Z,94.40
2019-03-15T16:47:45.017Z,94.50
2019-03-15T16:50:13.768Z,94.60
2019-03-15T16:52:42.000Z,94.80
2019-03-15T16:55:11.562Z,94.70
2019-03-15T16:57:39.788Z,94.60
2019-03-15T17:00:11.277Z,94.70
2019-03-15T17:02:39.504Z,94.70
2019-03-15T17:05:09.574Z,94.60
2019-03-15T17:07:37.793Z,94.40
2019-03-15T17:10:17.182Z,94.70
2019-03-15T17:12:45.640Z,94.60
2019-03-15T17:15:18.874Z,94.60
2019-03-15T17:17:47.534Z,94.90
2019-03-15T17:20:16.125Z,95.20
2019-03-15T17:22:44.356Z,95.20
2019-03-15T17:25:12.877Z,95.00
2019-03-15T17:27:41.108Z,94.70
2019-03-15T17:30:12.345Z,95.00
2019-03-15T17:32:40.891Z,94.80
2019-03-15T17:35:11.095Z,94.60
2019-03-15T17:37:39.372Z,94.60
2019-03-15T17:40:10.553Z,94.70
2019-03-15T17:42:38.784Z,94.70
2019-03-15T17:45:07.759Z,94.40
2019-03-15T17:47:35.987Z,94.30
2019-03-15T17:50:16.485Z,95.80
2019-03-15T17:52:45.016Z,94.20
2019-03-15T17:55:15.444Z,94.20
2019-03-15T17:57:51.074Z,94.10
2019-03-15T18:00:35.875Z,94.20
2019-03-15T18:03:18.869Z,94.40
2019-03-15T18:05:41.935Z,94.40
2019-03-15T18:08:10.274Z,94.50
2019-03-15T18:10:38.514Z,94.70
2019-03-15T18:13:06.771Z,94.80
2019-03-15T18:15:35.385Z,94.80
2019-03-15T18:18:03.611Z,94.80
2019-03-15T18:20:31.872Z,94.50
2019-03-15T18:23:00.516Z,94.60
2019-03-15T18:25:28.739Z,94.70
2019-03-15T18:27:56.987Z,94.90
2019-03-15T18:30:25.255Z,94.50
2019-03-15T18:32:53.499Z,94.80
2019-03-15T18:35:33.081Z,95.10
2019-03-15T18:37:51.757Z,94.70
2019-03-15T18:40:20.552Z,94.80
2019-03-15T18:42:48.799Z,94.60
2019-03-15T18:45:17.890Z,94.40
2019-03-15T18:47:46.149Z,94.50
2019-03-15T18:50:25.126Z,94.50
2019-03-15T18:52:53.377Z,94.50
2019-03-15T18:55:21.913Z,94.50
2019-03-15T18:57:50.390Z,94.60
2019-03-15T19:00:20.828Z,94.40
2019-03-15T19:02:49.057Z,94.10
2019-03-15T19:05:17.336Z,94.00
2019-03-15T19:07:45.564Z,94.30
2019-03-15T19:10:14.756Z,94.30
2019-03-15T19:12:42.970Z,94.30
2019-03-15T19:15:13.220Z,94.20
2019-03-15T19:17:41.819Z,94.10
2019-03-15T19:20:12.759Z,94.10
2019-03-15T19:22:40.981Z,94.10
2019-03-15T19:25:10.471Z,94.10
2019-03-15T19:27:38.753Z,94.10
2019-03-15T19:30:15.159Z,94.50
2019-03-15T19:32:43.379Z,94.30
2019-03-15T19:35:11.938Z,94.60
2019-03-15T19:37:40.164Z,94.60
2019-03-15T19:40:20.521Z,94.60
2019-03-15T19:42:48.743Z,94.50
2019-03-15T19:45:17.252Z,94.50
2019-03-15T19:47:45.567Z,95.00
2019-03-15T19:50:18.557Z,95.10
2019-03-15T19:52:46.784Z,95.00
2019-03-15T19:55:15.625Z,94.90
2019-03-15T19:57:43.828Z,95.10
2019-03-15T20:00:16.963Z,95.30
2019-03-15T20:02:45.542Z,95.60
2019-03-15T20:05:13.918Z,95.50
2019-03-15T20:07:42.202Z,95.70
2019-03-15T20:10:21.942Z,95.80
2019-03-15T20:12:50.493Z,96.00
2019-03-15T20:15:18.732Z,95.80
2019-03-15T20:17:47.537Z,95.60
2019-03-15T20:20:17.980Z,95.60
2019-03-15T20:22:46.214Z,95.90
2019-03-15T20:25:16.340Z,96.10
2019-03-15T20:27:44.561Z,96.00
2019-03-15T20:30:26.171Z,95.90
2019-03-15T20:32:51.986Z,96.20
2019-03-15T20:35:20.217Z,96.10
2019-03-15T20:37:48.424Z,96.60
2019-03-15T20:40:16.664Z,96.30
2019-03-15T20:42:44.900Z,96.10
2019-03-15T20:45:22.710Z,96.10
2019-03-15T20:47:50.933Z,96.60
2019-03-15T20:50:19.180Z,96.40
2019-03-15T20:52:47.414Z,96.60
2019-03-15T20:55:15.751Z,96.50
2019-03-15T20:57:43.977Z,96.40
2019-03-15T21:00:19.099Z,96.40
2019-03-15T21:02:47.351Z,96.10
2019-03-15T21:05:15.660Z,96.10
2019-03-15T21:07:44.154Z,96.20
2019-03-15T21:10:14.796Z,97.00
2019-03-15T21:12:43.027Z,97.20
2019-03-15T21:15:15.288Z,96.60
2019-03-15T21:17:43.891Z,96.60
2019-03-15T21:20:14.524Z,97.10
2019-03-15T21:22:42.783Z,96.70
2019-03-15T21:25:11.091Z,97.00
2019-03-15T21:27:52.474Z,96.80
2019-03-15T21:30:20.613Z,96.60
2019-03-15T21:32:49.102Z,96.70
2019-03-15T21:35:17.345Z,96.30
2019-03-15T21:37:45.674Z,96.40
2019-03-15T21:40:17.949Z,96.50
2019-03-15T21:42:46.182Z,96.60
2019-03-15T21:45:14.413Z,99.90
2019-03-15T21:47:42.680Z,95.60
2019-03-15T21:50:14.526Z,95.10
2019-03-15T21:52:42.743Z,94.80
2019-03-15T21:55:10.990Z,95.10
2019-03-15T21:57:39.217Z,95.10
2019-03-15T22:00:15.393Z,95.40
2019-03-15T22:02:43.608Z,95.00
2019-03-15T22:05:11.835Z,95.40
2019-03-15T22:07:40.074Z,95.60
2019-03-15T22:10:11.289Z,95.90
2019-03-15T22:12:39.531Z,96.10
2019-03-15T22:15:09.387Z,95.80
2019-03-15T22:17:38.022Z,95.90
2019-03-15T22:20:09.192Z,95.50
2019-03-15T22:22:37.076Z,95.20
2019-03-15T22:25:06.749Z,95.50
2019-03-15T22:27:35.351Z,95.70
2019-03-15T22:30:04.816Z,95.40
2019-03-15T22:32:33.330Z,95.70
2019-03-15T22:35:01.559Z,95.50
2019-03-15T22:37:29.798Z,95.90
2019-03-15T22:39:58.027Z,95.90
2019-03-15T22:42:26.264Z,95.50
2019-03-15T22:44:54.827Z,95.30
2019-03-15T22:47:23.406Z,95.70
2019-03-15T22:49:51.986Z,95.40
2019-03-15T22:52:20.242Z,95.20
2019-03-15T22:54:48.470Z,95.00
2019-03-15T22:57:17.845Z,94.90
2019-03-15T22:59:46.422Z,94.70
2019-03-15T23:02:14.663Z,94.60
2019-03-15T23:04:43.212Z,94.80
2019-03-15T23:07:11.882Z,94.80
2019-03-15T23:09:40.112Z,94.80
2019-03-15T23:12:08.628Z,94.50
2019-03-15T23:14:37.105Z,94.70
2019-03-15T23:17:05.358Z,94.60
2019-03-15T23:19:33.865Z,95.10
2019-03-15T23:22:02.102Z,95.20
2019-03-15T23:24:30.333Z,95.30
2019-03-15T23:26:58.900Z,95.30
2019-03-15T23:29:27.376Z,95.30
2019-03-15T23:31:55.620Z,95.30
2019-03-15T23:34:24.341Z,95.40
2019-03-15T23:36:52.934Z,95.20
2019-03-15T23:39:21.229Z,95.20
2019-03-15T23:41:49.484Z,95.40
2019-03-15T23:44:17.788Z,95.10
2019-03-15T23:46:46.072Z,95.10
2019-03-15T23:49:14.292Z,94.90
2019-03-15T23:51:42.539Z,95.00
2019-03-15T23:54:10.759Z,94.70
2019-03-15T23:56:39.000Z,94.60
2019-03-15T23:59:07.233Z,94.80
